Time;durP1;ratioP1;P1;durP2;ratioP2;P2;SDS_P1;SDS_P2;PMS_P1;PMS_P2;Temp;Humidity;BMP_temperature;BMP_pressure;BME280_temperature;BME280_humidity;BME280_pressure;Samples;Min_cycle;Max_cycle;Signal;HPM_P1;HPM_P2
2023/10/16 00:00:30;;;;;;;25.10;9.65;;;;;;;19.33;51.64;99001.25;5051442;28;20021;-38
2023/10/16 00:03:02;;;;;;;24.77;9.55;;;;;;;19.66;50.74;98998.88;5054742;28;20032;-38
2023/10/16 00:05:33;;;;;;;34.15;10.15;;;;;;;19.68;49.90;99010.19;5054856;28;20107;-37
2023/10/16 00:08:08;;;;;;;22.33;9.80;;;;;;;19.39;50.70;99014.72;5054949;28;20102;-37
2023/10/16 00:10:35;;;;;;;34.35;10.45;;;;;;;19.29;50.84;99023.69;5054679;28;20017;-38
2023/10/16 00:13:05;;;;;;;183.93;15.50;;;;;;;19.19;50.63;99023.72;5054693;28;20028;-39
2023/10/16 00:15:44;;;;;;;79.28;11.95;;;;;;;19.21;50.74;99022.38;5054809;28;20491;-39
2023/10/16 00:18:17;;;;;;;22.75;9.82;;;;;;;18.99;51.34;99027.34;5054299;28;20021;-38
2023/10/16 00:20:43;;;;;;;54.38;10.50;;;;;;;18.90;51.20;99032.47;5054329;28;20480;-40
2023/10/16 00:23:10;;;;;;;36.60;9.98;;;;;;;18.87;51.11;99039.22;5054017;28;20028;-38
2023/10/16 00:25:40;;;;;;;23.70;9.38;;;;;;;18.84;51.21;99039.78;5054296;28;20036;-38
2023/10/16 00:28:09;;;;;;;;;;;;;;;18.84;50.87;99052.44;5054894;28;20013;-38
2023/10/16 00:30:35;;;;;;;24.85;8.63;;;;;;;18.63;51.46;99036.31;5054251;28;19908;-40
2023/10/16 00:33:02;;;;;;;24.25;9.00;;;;;;;18.86;50.38;99048.38;5053966;28;20074;-39
2023/10/16 00:35:27;;;;;;;30.10;9.55;;;;;;;18.73;51.00;99060.53;5054078;28;20028;-40
2023/10/16 00:37:53;;;;;;;23.90;8.68;;;;;;;18.56;51.25;99065.41;5053940;28;20048;-39
2023/10/16 00:40:33;;;;;;;27.20;9.10;;;;;;;18.44;51.52;99075.69;5054348;28;20091;-39
2023/10/16 00:43:06;;;;;;;27.52;8.68;;;;;;;18.50;51.16;99078.09;5053430;28;20025;-39
2023/10/16 00:45:59;;;;;;;41.30;8.50;;;;;;;18.11;51.88;99069.78;5054322;28;20021;-39
2023/10/16 00:48:25;;;;;;;32.42;8.13;;;;;;;18.14;51.32;99085.38;5053918;28;20041;-41
2023/10/16 00:50:51;;;;;;;27.25;7.72;;;;;;;18.03;51.59;99075.69;5053857;28;20033;-40
2023/10/16 00:53:21;;;;;;;16.52;6.57;;;;;;;18.24;50.69;99085.41;5053898;28;20398;-40
2023/10/16 00:55:51;;;;;;;29.20;6.72;;;;;;;18.14;50.52;99082.69;5053384;28;20025;-39
2023/10/16 00:58:17;;;;;;;24.52;7.53;;;;;;;18.10;50.45;99087.78;5053866;28;20032;-41
2023/10/16 01:00:45;;;;;;;60.13;7.25;;;;;;;18.03;50.60;99099.91;5054064;28;20040;-41
2023/10/16 01:03:12;;;;;;;19.88;5.78;;;;;;;17.81;50.70;99076.72;5053755;28;20025;-41
2023/10/16 01:05:42;;;;;;;23.85;6.10;;;;;;;17.89;50.85;99116.59;5053851;28;20036;-41
2023/10/16 01:08:10;;;;;;;29.75;6.03;;;;;;;17.75;50.86;99110.09;5053921;28;20033;-41
2023/10/16 01:10:40;;;;;;;79.00;8.00;;;;;;;17.77;50.35;99108.72;5053259;28;20060;-39
2023/10/16 01:13:12;;;;;;;25.33;4.80;;;;;;;17.59;50.98;99112.75;5053707;28;20052;-39
2023/10/16 01:15:46;;;;;;;22.08;5.30;;;;;;;17.99;50.01;99115.78;5053627;28;20024;-39
2023/10/16 01:18:15;;;;;;;10.52;5.53;;;;;;;17.91;50.15;99110.94;5053568;28;20029;-39
2023/10/16 01:20:51;;;;;;;10.00;5.50;;;;;;;17.86;50.72;99119.00;5053658;28;20024;-40
2023/10/16 01:23:24;;;;;;;23.85;6.10;;;;;;;17.86;50.41;99121.69;5053473;28;20116;-37
2023/10/16 01:25:51;;;;;;;22.33;6.00;;;;;;;17.87;50.37;99126.00;5053322;28;20024;-39
2023/10/16 01:28:18;;;;;;;17.40;4.53;;;;;;;17.76;50.48;99133.22;5053066;28;20442;-40
2023/10/16 01:30:45;;;;;;;8.27;4.57;;;;;;;17.92;49.86;99147.56;5053261;28;20029;-39
2023/10/16 01:33:11;;;;;;;13.60;4.90;;;;;;;17.78;50.04;99141.81;5053081;28;20055;-39
2023/10/16 01:35:37;;;;;;;15.63;4.57;;;;;;;17.80;49.70;99158.53;5053200;28;20032;-40
2023/10/16 01:38:14;;;;;;;15.07;4.10;;;;;;;17.63;49.85;99160.63;5052867;28;20051;-39
2023/10/16 01:40:48;;;;;;;23.73;3.90;;;;;;;17.56;49.51;99182.41;5053165;28;20441;-39
2023/10/16 01:43:16;;;;;;;15.50;3.72;;;;;;;17.31;49.88;99194.66;5052868;28;20047;-39
2023/10/16 01:45:51;;;;;;;10.52;3.45;;;;;;;17.45;49.33;99192.28;5052923;28;20025;-40
2023/10/16 01:48:20;;;;;;;18.08;3.58;;;;;;;17.30;49.71;99197.59;5053134;28;20078;-36
2023/10/16 01:50:49;;;;;;;11.93;3.13;;;;;;;16.99;49.99;99208.97;5052780;28;20509;-38
2023/10/16 01:53:18;;;;;;;9.73;2.70;;;;;;;17.15;49.49;99215.28;5052876;28;20021;-39
2023/10/16 01:55:51;;;;;;;7.55;2.75;;;;;;;17.10;48.95;99206.38;5052519;28;20078;-40
2023/10/16 01:58:22;;;;;;;14.05;2.78;;;;;;;17.11;49.42;99216.03;5052683;28;20032;-39
2023/10/16 02:00:48;;;;;;;9.27;2.83;;;;;;;17.19;48.97;99216.38;5052977;28;20104;-39
2023/10/16 02:03:17;;;;;;;9.48;2.78;;;;;;;17.22;49.17;99227.66;5052596;28;20478;-39
2023/10/16 02:05:46;;;;;;;8.10;2.90;;;;;;;17.08;49.23;99230.00;5052935;28;20028;-39
2023/10/16 02:08:15;;;;;;;7.75;3.25;;;;;;;17.12;49.23;99229.22;5052464;28;20052;-39
2023/10/16 02:10:42;;;;;;;4.18;3.10;;;;;;;17.18;48.80;99230.88;5052705;28;20035;-37
2023/10/16 02:13:09;;;;;;;5.40;2.80;;;;;;;17.10;48.92;99231.38;5052188;28;20079;-39
2023/10/16 02:15:36;;;;;;;8.55;2.70;;;;;;;16.93;48.76;99244.94;5052225;28;20029;-40
2023/10/16 02:18:05;;;;;;;8.30;2.85;;;;;;;16.92;49.35;99251.38;5052286;28;20033;-39
2023/10/16 02:20:31;;;;;;;4.60;2.65;;;;;;;17.13;48.92;99246.97;5052224;28;20032;-39
2023/10/16 02:22:59;;;;;;;5.57;2.78;;;;;;;17.26;48.39;99247.59;5051180;28;20040;-39
2023/10/16 02:25:25;;;;;;;6.15;2.70;;;;;;;17.09;48.10;99259.31;5051935;28;20039;-40
2023/10/16 02:27:51;;;;;;;4.93;2.40;;;;;;;16.97;48.50;99254.13;5052161;28;20029;-40
2023/10/16 02:32:49;;;;;;;12.40;2.88;;;;;;;16.55;48.20;99254.00;5052003;28;20451;-39
2023/10/16 02:35:15;;;;;;;9.25;2.30;;;;;;;16.83;48.06;99263.69;5051737;28;20052;-39
2023/10/16 02:37:41;;;;;;;6.47;2.13;;;;;;;16.97;47.21;99261.38;5051684;28;20076;-39
2023/10/16 02:40:11;;;;;;;3.05;2.05;;;;;;;16.69;47.30;99260.56;5051997;28;20041;-39
2023/10/16 02:42:40;;;;;;;4.78;2.25;;;;;;;17.09;46.67;99266.56;5050085;28;20498;-40
2023/10/16 02:45:23;;;;;;;5.47;2.13;;;;;;;17.12;46.39;99271.44;5051760;28;20054;-40
2023/10/16 02:47:49;;;;;;;4.00;2.00;;;;;;;17.13;46.17;99273.03;5051976;28;20033;-39
2023/10/16 02:50:15;;;;;;;4.63;1.70;;;;;;;16.83;46.75;99276.28;5051956;28;20028;-39
2023/10/16 02:52:40;;;;;;;2.35;1.73;;;;;;;16.86;46.33;99279.28;5051586;28;20396;-39
2023/10/16 02:55:06;;;;;;;6.32;1.80;;;;;;;16.60;46.95;99295.16;5051936;28;20468;-38
2023/10/16 02:57:32;;;;;;;4.50;1.60;;;;;;;16.75;46.58;99307.09;5051321;28;20496;-40
2023/10/16 02:59:58;;;;;;;2.90;1.42;;;;;;;16.93;45.85;99303.28;5051647;28;20032;-40
2023/10/16 03:02:26;;;;;;;2.53;1.48;;;;;;;16.88;45.87;99308.59;5051349;28;20086;-40
2023/10/16 03:04:54;;;;;;;14.45;1.98;;;;;;;16.69;46.22;99308.91;5051634;28;20031;-39
2023/10/16 03:07:25;;;;;;;28.48;2.53;;;;;;;16.63;46.52;99319.88;5051347;28;20496;-41
2023/10/16 03:09:51;;;;;;;8.40;1.73;;;;;;;16.43;46.62;99310.56;5051532;28;20053;-37
2023/10/16 03:12:19;;;;;;;16.15;2.25;;;;;;;16.28;46.61;99324.63;5051387;28;20108;-39
2023/10/16 03:14:45;;;;;;;5.63;1.42;;;;;;;16.40;47.13;99333.34;5051038;28;20036;-39
2023/10/16 03:17:18;;;;;;;10.38;1.38;;;;;;;16.59;46.55;99330.31;5051339;28;20021;-39
2023/10/16 03:19:48;;;;;;;19.90;1.73;;;;;;;16.65;46.17;99331.19;5051316;28;20024;-39
2023/10/16 03:22:13;;;;;;;11.48;1.90;;;;;;;16.35;47.07;99338.63;5051145;28;20461;-39
2023/10/16 03:24:39;;;;;;;14.55;1.77;;;;;;;16.33;47.05;99327.34;5051236;28;20108;-39
2023/10/16 03:27:08;;;;;;;4.45;1.88;;;;;;;16.31;47.70;99336.72;5051033;28;20025;-39
2023/10/16 03:29:37;;;;;;;7.20;1.65;;;;;;;16.20;48.01;99346.53;5051041;28;20524;-38
2023/10/16 03:32:03;;;;;;;13.60;1.90;;;;;;;15.86;48.67;99361.91;5051158;28;20037;-39
2023/10/16 03:34:31;;;;;;;27.42;2.58;;;;;;;15.65;48.54;99366.97;5053214;28;20024;-39
2023/10/16 03:37:03;;;;;;;22.50;2.90;;;;;;;15.35;49.76;99359.28;5057523;28;20064;-39
2023/10/16 03:39:31;;;;;;;27.38;2.75;;;;;;;15.45;49.73;99370.16;5057667;28;20043;-40
2023/10/16 03:41:57;;;;;;;13.30;2.40;;;;;;;15.22;49.89;99369.25;5057656;28;20416;-38
2023/10/16 03:44:26;;;;;;;13.43;2.95;;;;;;;15.47;49.37;99376.06;5057394;28;20034;-41
2023/10/16 03:46:52;;;;;;;13.60;2.63;;;;;;;15.32;49.81;99390.03;5057889;28;20106;-45
2023/10/16 03:49:18;;;;;;;19.77;2.85;;;;;;;15.35;50.29;99381.53;5057384;28;20036;-41
2023/10/16 03:51:48;;;;;;;25.88;3.05;;;;;;;15.27;50.24;99379.25;5057870;28;20107;-41
2023/10/16 03:54:16;;;;;;;14.65;3.30;;;;;;;15.25;50.14;99376.81;5057572;28;20040;-42
2023/10/16 03:56:41;;;;;;;20.20;3.42;;;;;;;14.75;51.33;99382.09;5057650;28;20531;-41
2023/10/16 03:59:07;;;;;;;20.05;3.25;;;;;;;14.75;51.12;99398.97;5057536;28;20468;-42
2023/10/16 04:01:37;;;;;;;26.35;3.90;;;;;;;14.55;51.99;99401.22;5057324;28;20529;-41
2023/10/16 04:04:03;;;;;;;20.25;3.80;;;;;;;14.68;51.95;99410.88;5050011;28;20549;-42
2023/10/16 04:06:30;;;;;;;9.05;3.40;;;;;;;14.56;52.58;99419.72;5037891;28;20057;-40
2023/10/16 04:08:56;;;;;;;19.02;3.50;;;;;;;14.54;52.29;99419.13;5038212;28;20056;-42
2023/10/16 04:11:25;;;;;;;24.70;3.80;;;;;;;14.63;52.15;99424.97;5053778;28;20056;-40
2023/10/16 04:13:54;;;;;;;20.02;3.60;;;;;;;14.76;51.65;99408.63;5057715;28;20036;-42
2023/10/16 04:16:31;;;;;;;8.70;3.80;;;;;;;14.74;52.02;99423.31;5057882;28;20029;-41
2023/10/16 04:21:54;;;;;;;22.35;4.28;;;;;;;14.45;52.55;99450.03;5057914;28;20391;-41
2023/10/16 04:27:38;;;;;;;8.50;3.75;;;;;;;15.01;51.17;99464.56;5057800;28;20029;-42
2023/10/16 04:30:32;;;;;;;11.20;4.22;;;;;;;15.01;50.62;99463.75;5053819;28;20041;-41
2023/10/16 04:36:18;;;;;;;6.88;3.45;;;;;;;14.88;50.81;99475.56;5056375;28;20028;-42
2023/10/16 04:38:27;;;;;;;10.20;3.85;;;;;;;14.71;51.43;99472.81;5056640;28;20124;-42
2023/10/16 04:44:21;;;;;;;11.73;3.88;;;;;;;14.84;50.50;99491.28;5056798;28;20031;-41
2023/10/16 04:49:19;;;;;;;9.98;4.05;;;;;;;14.85;50.40;99489.44;5047825;28;20040;-43
2023/10/16 04:52:01;;;;;;;9.93;3.70;;;;;;;14.75;50.19;99495.38;5050462;28;20028;-43
2023/10/16 04:54:58;;;;;;;32.58;4.22;;;;;;;14.71;50.25;99499.59;5043307;28;20105;-41
2023/10/16 04:59:59;;;;;;;14.40;4.05;;;;;;;14.76;49.30;99529.16;5052041;28;20178;-41
2023/10/16 05:02:40;;;;;;;14.05;3.22;;;;;;;14.96;48.78;99535.97;5048366;28;20029;-40
2023/10/16 05:11:23;;;;;;;11.73;3.42;;;;;;;14.72;48.85;99543.28;5051859;28;20110;-41
2023/10/16 05:13:43;;;;;;;13.27;3.35;;;;;;;14.66;48.36;99553.88;5053024;28;20033;-42
2023/10/16 05:22:02;;;;;;;9.10;3.45;;;;;;;14.66;48.16;99553.88;5041453;28;20037;-42
2023/10/16 06:16:30;;;;;;;17.60;3.50;;;;;;;14.78;45.40;99713.75;5050501;28;20527;-42
2023/10/16 06:18:57;;;;;;;19.58;4.10;;;;;;;15.02;44.82;99728.81;5050335;28;20028;-41
2023/10/16 06:21:22;;;;;;;17.65;4.05;;;;;;;14.78;44.74;99732.50;5051426;28;20025;-42
2023/10/16 06:23:49;;;;;;;12.25;2.95;;;;;;;14.55;44.71;99701.13;5051779;28;20025;-41
2023/10/16 06:26:15;;;;;;;16.77;3.40;;;;;;;14.79;44.17;99724.25;5051723;28;20108;-41
2023/10/16 06:28:47;;;;;;;14.60;3.10;;;;;;;14.50;43.80;99709.03;5051687;28;20021;-42
2023/10/16 06:31:14;;;;;;;14.43;3.08;;;;;;;14.94;43.98;99737.16;5051558;28;20198;-40
2023/10/16 06:33:41;;;;;;;16.13;3.95;;;;;;;15.17;42.62;99744.41;5051684;28;20012;-42
2023/10/16 06:36:10;;;;;;;25.40;3.70;;;;;;;14.86;43.59;99751.72;5052001;28;20080;-45
2023/10/16 06:38:35;;;;;;;87.60;6.00;;;;;;;14.82;42.78;99749.75;5051688;28;20056;-42
2023/10/16 06:41:01;;;;;;;13.75;4.32;;;;;;;15.09;42.51;99754.66;5051144;28;20029;-43
2023/10/16 06:43:26;;;;;;;12.80;3.20;;;;;;;15.18;42.92;99770.16;5050500;28;20428;-42
2023/10/16 06:45:55;;;;;;;14.00;2.90;;;;;;;14.75;43.04;99771.25;5051226;28;20460;-43
2023/10/16 06:48:21;;;;;;;13.38;2.85;;;;;;;14.70;42.86;99781.03;5051069;28;20043;-41
2023/10/16 06:50:53;;;;;;;23.20;3.45;;;;;;;14.42;43.34;99785.13;5051517;28;20113;-42
2023/10/16 06:53:22;;;;;;;11.43;2.97;;;;;;;14.62;42.96;99783.03;5051575;28;20422;-43
2023/10/16 06:55:49;;;;;;;15.10;3.10;;;;;;;14.53;42.84;99776.31;5051216;28;20512;-42
2023/10/16 06:58:15;;;;;;;8.15;2.60;;;;;;;14.61;42.47;99759.13;5051315;28;20027;-42
2023/10/16 07:00:45;;;;;;;4.60;2.63;;;;;;;14.68;42.72;99780.44;5051354;28;20025;-45
2023/10/16 07:03:12;;;;;;;12.38;2.60;;;;;;;15.00;41.67;99784.50;5051213;28;20104;-42
2023/10/16 07:05:44;;;;;;;8.65;3.33;;;;;;;14.83;42.07;99803.09;5050771;28;20035;-43
2023/10/16 07:08:11;;;;;;;11.05;2.90;;;;;;;14.78;41.30;99800.28;5051141;28;20056;-42
2023/10/16 07:10:41;;;;;;;15.00;3.15;;;;;;;15.09;41.00;99793.00;5051032;28;20473;-44
2023/10/16 07:13:09;;;;;;;7.82;2.60;;;;;;;15.05;40.17;99797.19;5051055;28;20100;-44
2023/10/16 07:15:34;;;;;;;22.05;3.17;;;;;;;15.22;39.20;99795.44;5051262;28;20025;-42
2023/10/16 07:18:04;;;;;;;13.43;2.88;;;;;;;15.26;39.75;99803.84;5051124;28;20034;-40
2023/10/16 07:20:31;;;;;;;14.07;2.85;;;;;;;14.79;39.90;99812.66;5051409;28;20029;-41
2023/10/16 07:22:59;;;;;;;19.25;2.97;;;;;;;14.62;40.47;99817.84;5050734;28;20112;-43
2023/10/16 07:25:37;;;;;;;6.10;2.45;;;;;;;14.85;40.24;99811.72;5051032;28;20556;-44
2023/10/16 07:28:08;;;;;;;7.63;3.00;;;;;;;14.93;39.91;99833.88;5050650;28;20112;-41
2023/10/16 07:30:34;;;;;;;5.78;2.78;;;;;;;14.85;39.37;99835.84;5050679;28;20389;-42
2023/10/16 07:33:01;;;;;;;12.65;2.63;;;;;;;14.92;39.74;99842.94;5051014;28;20070;-42
2023/10/16 07:35:27;;;;;;;12.73;3.20;;;;;;;15.15;38.35;99853.69;5050910;28;20488;-41
2023/10/16 07:37:55;;;;;;;8.57;2.63;;;;;;;14.63;39.23;99834.72;5050792;28;20496;-43
2023/10/16 07:40:21;;;;;;;23.73;3.00;;;;;;;14.93;38.90;99832.00;5050866;28;20033;-42
2023/10/16 07:42:52;;;;;;;6.72;2.85;;;;;;;15.31;37.69;99838.81;5050512;28;20124;-42
2023/10/16 07:45:18;;;;;;;21.20;3.22;;;;;;;15.21;37.52;99826.00;5050791;28;20394;-42
2023/10/16 07:47:48;;;;;;;7.07;2.42;;;;;;;15.04;37.71;99839.25;5050810;28;20029;-43
2023/10/16 07:50:17;;;;;;;6.68;2.22;;;;;;;14.92;38.17;99838.41;5050855;28;20033;-40
2023/10/16 07:52:43;;;;;;;20.20;2.65;;;;;;;15.21;37.16;99839.41;5051017;28;20032;-42
2023/10/16 07:55:18;;;;;;;6.30;2.60;;;;;;;15.62;36.02;99829.59;5050600;28;20079;-44
2023/10/16 07:57:48;;;;;;;6.32;2.35;;;;;;;15.33;36.80;99850.13;5050710;28;20028;-42
2023/10/16 08:00:14;;;;;;;7.18;2.15;;;;;;;15.15;36.29;99850.22;5050577;28;20386;-42
2023/10/16 08:02:45;;;;;;;6.78;2.30;;;;;;;15.37;36.39;99850.47;5050554;28;20025;-40
2023/10/16 08:05:15;;;;;;;7.70;2.60;;;;;;;15.03;36.99;99832.25;5050329;28;20108;-43
2023/10/16 08:07:47;;;;;;;9.65;2.60;;;;;;;15.23;36.40;99839.97;5050746;28;20091;-40
2023/10/16 08:13:24;;;;;;;13.00;2.80;;;;;;;15.17;36.35;99845.44;5050639;28;20036;-45
2023/10/16 08:15:45;;;;;;;12.40;2.67;;;;;;;15.11;36.70;99844.50;5050199;28;20041;-41
2023/10/16 08:18:13;;;;;;;9.48;2.22;;;;;;;15.49;35.48;99848.59;5050535;28;20550;-41
2023/10/16 08:23:23;;;;;;;14.38;2.80;;;;;;;15.52;34.66;99848.16;5054230;28;20044;-40
2023/10/16 08:25:49;;;;;;;4.93;2.40;;;;;;;15.61;34.79;99845.91;5053894;28;20025;-44
2023/10/16 08:28:22;;;;;;;17.83;2.67;;;;;;;15.57;35.31;99844.75;5054348;28;20017;-39
2023/10/16 08:33:16;;;;;;;19.00;2.90;;;;;;;15.94;34.18;99852.59;5043367;28;20026;-43
2023/10/16 08:35:42;;;;;;;15.68;2.55;;;;;;;15.95;33.77;99838.91;5036055;28;20048;-42
2023/10/16 08:38:20;;;;;;;4.15;1.90;;;;;;;16.05;34.03;99842.88;5053361;28;20135;-41
2023/10/16 08:40:57;;;;;;;19.45;2.70;;;;;;;16.19;33.81;99853.09;5053774;28;20485;-41
2023/10/16 08:46:18;;;;;;;10.57;2.30;;;;;;;16.08;33.29;99872.72;5051929;28;20091;-42
2023/10/16 08:48:48;;;;;;;8.93;2.35;;;;;;;16.42;32.77;99884.44;5053456;28;20036;-41
2023/10/16 08:51:16;;;;;;;13.32;3.10;;;;;;;16.45;32.37;99877.78;5053620;28;20064;-41
2023/10/16 08:53:45;;;;;;;8.13;2.35;;;;;;;17.02;31.62;99889.59;5053559;28;20021;-42
2023/10/16 08:56:12;;;;;;;17.08;2.95;;;;;;;16.73;32.48;99889.59;5053499;28;20025;-41
2023/10/16 08:58:44;;;;;;;12.85;1.95;;;;;;;16.94;31.60;99885.41;5053615;28;20036;-41
2023/10/16 09:01:12;;;;;;;18.50;2.55;;;;;;;16.93;31.27;99884.63;5053489;28;20167;-42
2023/10/16 09:04:01;;;;;;;9.80;1.98;;;;;;;17.16;31.63;99888.22;5052216;28;20025;-40
2023/10/16 09:06:29;;;;;;;5.03;2.00;;;;;;;17.05;31.46;99887.22;5049819;28;20585;-41
2023/10/16 09:08:55;;;;;;;6.43;2.08;;;;;;;16.70;31.71;99882.84;5053247;28;20029;-41
2023/10/16 09:11:21;;;;;;;15.65;2.15;;;;;;;16.78;30.88;99881.63;5050684;28;20121;-41
2023/10/16 09:13:53;;;;;;;4.60;1.90;;;;;;;17.16;31.55;99893.59;5053366;28;20013;-40
2023/10/16 09:16:30;;;;;;;10.82;1.90;;;;;;;16.70;31.56;99890.88;5053270;28;20033;-43
2023/10/16 09:18:58;;;;;;;5.47;1.80;;;;;;;16.92;30.98;99898.28;5050914;28;20091;-42
2023/10/16 09:21:29;;;;;;;6.13;1.90;;;;;;;17.29;30.52;99892.50;5039769;28;20037;-42
2023/10/16 09:23:58;;;;;;;7.18;2.10;;;;;;;17.37;30.68;99902.84;5033679;28;20033;-42
2023/10/16 09:26:28;;;;;;;6.30;1.90;;;;;;;17.71;29.99;99916.28;5033672;28;20033;-43
2023/10/16 09:28:55;;;;;;;9.23;1.80;;;;;;;18.19;29.96;99905.94;5033087;28;20041;-41
2023/10/16 09:31:30;;;;;;;4.28;1.70;;;;;;;18.71;28.49;99900.88;5031917;28;20041;-42
2023/10/16 09:33:55;;;;;;;6.32;1.80;;;;;;;18.87;27.31;99899.19;5049750;28;20025;-43
2023/10/16 09:36:21;;;;;;;12.48;2.03;;;;;;;18.66;27.63;99908.13;5052718;28;20029;-39
2023/10/16 09:38:56;;;;;;;3.25;1.52;;;;;;;18.80;27.56;99893.19;5051119;28;20061;-39
2023/10/16 09:43:56;;;;;;;4.47;1.80;;;;;;;19.54;27.67;99878.19;5052478;28;20032;-43
2023/10/16 09:49:14;;;;;;;11.18;1.70;;;;;;;19.63;27.51;99862.28;5052220;28;20408;-43
2023/10/16 09:51:40;;;;;;;4.22;1.75;;;;;;;19.90;26.71;99852.22;5052389;28;20028;-42
2023/10/16 09:54:09;;;;;;;4.75;1.60;;;;;;;19.67;26.71;99858.03;5052632;28;20017;-41
2023/10/16 09:56:38;;;;;;;12.25;2.42;;;;;;;20.04;26.99;99855.25;5052171;28;20025;-41
2023/10/16 09:59:12;;;;;;;8.70;2.40;;;;;;;20.19;26.19;99851.81;5052157;28;20103;-43
2023/10/16 10:01:42;;;;;;;14.35;2.30;;;;;;;20.35;26.01;99859.97;5052219;28;20138;-42
2023/10/16 10:04:11;;;;;;;4.10;1.70;;;;;;;20.52;25.42;99855.16;5052452;28;20386;-42
2023/10/16 10:06:39;;;;;;;4.05;1.60;;;;;;;20.35;25.51;99838.34;5052125;28;20029;-41
2023/10/16 10:11:48;;;;;;;5.20;2.20;;;;;;;21.14;24.52;99839.84;5052136;28;20087;-40
2023/10/16 10:14:40;;;;;;;7.43;2.85;;;;;;;21.63;24.80;99835.78;5052128;28;20025;-44
2023/10/16 10:17:09;;;;;;;6.10;2.10;;;;;;;21.38;24.82;99833.88;5051754;28;20032;-41
2023/10/16 10:19:40;;;;;;;;;;;;;;;;;;5052498;28;20155;-40
2023/10/16 10:22:19;;;;;;;4.30;1.80;;;;;;;21.21;23.46;99831.44;5052027;28;19909;-42
2023/10/16 10:24:56;;;;;;;6.40;1.98;;;;;;;21.39;23.56;99820.06;5051988;28;20099;-41
2023/10/16 10:27:22;;;;;;;11.55;2.95;;;;;;;22.11;22.85;99830.72;5051915;28;20021;-40
2023/10/16 10:29:50;;;;;;;31.20;15.23;;;;;;;21.63;21.60;99831.16;5051808;28;20029;-43
2023/10/16 10:32:15;;;;;;;26.75;16.30;;;;;;;21.65;21.20;99823.56;5051758;28;20020;-43
2023/10/16 10:34:44;;;;;;;23.88;9.15;;;;;;;21.71;20.76;99828.97;5051783;28;20024;-41
2023/10/16 10:37:51;;;;;;;20.98;4.03;;;;;;;21.40;20.76;99820.88;5051520;28;20045;-41
2023/10/16 10:40:24;;;;;;;7.45;2.13;;;;;;;21.29;20.89;99820.09;5051643;28;20444;-42
2023/10/16 10:43:03;;;;;;;9.25;3.60;;;;;;;21.37;20.64;99816.81;5051239;28;20029;-42
2023/10/16 10:45:35;;;;;;;11.50;5.10;;;;;;;21.57;20.62;99816.00;5050543;28;20025;-42
2023/10/16 10:48:10;;;;;;;9.98;4.70;;;;;;;20.82;20.96;99819.28;5051219;28;20397;-43
2023/10/16 10:50:40;;;;;;;17.02;8.50;;;;;;;21.46;20.68;99819.81;5051094;28;20029;-43
2023/10/16 10:53:15;;;;;;;12.07;6.32;;;;;;;21.59;20.40;99815.72;5051503;28;20044;-41
2023/10/16 10:55:56;;;;;;;9.10;4.93;;;;;;;21.27;20.41;99806.81;5051136;28;20017;-41
2023/10/16 10:58:31;;;;;;;13.38;6.05;;;;;;;21.42;20.16;99811.41;5051271;28;20025;-41
2023/10/16 11:03:45;;;;;;;12.85;4.57;;;;;;;21.25;20.30;99806.28;5051132;28;20027;-40
2023/10/16 11:06:18;;;;;;;13.65;2.33;;;;;;;21.51;20.30;99806.25;5051377;28;20114;-42
2023/10/16 11:08:47;;;;;;;1.92;1.60;;;;;;;21.59;20.27;99788.63;5050971;28;20105;-42
2023/10/16 11:11:14;;;;;;;2.25;1.20;;;;;;;21.69;19.56;99791.34;5050849;28;20584;-43
2023/10/16 11:13:49;;;;;;;10.77;5.28;;;;;;;22.33;19.83;99795.16;5050913;28;20024;-44
2023/10/16 11:16:15;;;;;;;13.80;5.65;;;;;;;22.42;19.82;99790.72;5050919;28;20029;-42
2023/10/16 11:18:57;;;;;;;9.93;4.57;;;;;;;22.42;19.74;99796.16;5050950;28;20028;-45
2023/10/16 11:21:25;;;;;;;7.30;2.53;;;;;;;22.36;19.43;99789.16;5050788;28;20469;-41
2023/10/16 11:23:55;;;;;;;14.98;8.38;;;;;;;21.88;19.76;99793.44;5051151;28;20036;-42
2023/10/16 11:26:27;;;;;;;6.13;2.78;;;;;;;21.97;18.96;99789.03;5051257;28;20396;-42
2023/10/16 11:28:54;;;;;;;2.80;1.60;;;;;;;22.68;19.18;99790.56;5050706;28;20132;-42
2023/10/16 11:31:21;;;;;;;3.63;1.83;;;;;;;22.95;18.47;99802.84;5050448;28;20032;-44
2023/10/16 11:34:06;;;;;;;3.90;1.25;;;;;;;22.38;18.60;99792.38;5050914;28;20078;-40
2023/10/16 11:36:34;;;;;;;1.73;0.85;;;;;;;22.22;18.83;99788.94;5050582;28;20091;-42
2023/10/16 11:39:03;;;;;;;2.05;1.10;;;;;;;22.40;18.42;99789.41;5050742;28;20049;-42
2023/10/16 11:41:32;;;;;;;;;;;;;;;22.02;18.82;99806.09;5051216;28;20021;-39
2023/10/16 11:44:05;;;;;;;4.00;1.42;;;;;;;22.14;18.70;99799.53;5050382;28;20011;-43
2023/10/16 11:47:17;;;;;;;1.70;1.20;;;;;;;22.52;18.88;99808.81;5050626;28;20152;-42
2023/10/16 11:51:47;;;;;;;2.58;0.93;;;;;;;22.43;18.73;99799.69;5050534;28;20515;-42
2023/10/16 11:54:19;;;;;;;3.65;1.10;;;;;;;23.25;18.05;99792.81;5050651;28;20485;-42
2023/10/16 11:56:47;;;;;;;2.15;0.73;;;;;;;23.17;17.84;99805.94;5053872;28;20078;-40
2023/10/16 11:59:12;;;;;;;1.88;0.88;;;;;;;22.68;18.36;99806.03;5054140;28;20025;-42
2023/10/16 12:01:38;;;;;;;3.40;1.02;;;;;;;23.45;17.63;99810.81;5054763;28;20021;-41
2023/10/16 12:04:04;;;;;;;3.63;1.15;;;;;;;22.86;18.44;99813.47;5054696;28;20116;-41
2023/10/16 12:06:30;;;;;;;5.00;1.10;;;;;;;23.33;17.99;99817.44;5054023;28;20488;-44
2023/10/16 12:08:55;;;;;;;1.63;1.00;;;;;;;23.18;18.38;99821.09;5054616;28;20098;-43
2023/10/16 12:11:20;;;;;;;1.48;0.98;;;;;;;23.11;18.28;99817.09;5054009;28;20033;-43
2023/10/16 12:13:47;;;;;;;3.85;1.70;;;;;;;22.94;18.19;99817.47;5054052;28;20389;-41
2023/10/16 12:16:12;;;;;;;3.92;2.20;;;;;;;22.80;18.01;99811.91;5053727;28;20021;-42
2023/10/16 12:18:38;;;;;;;7.25;2.20;;;;;;;22.29;18.43;99821.16;5053903;28;20071;-43
2023/10/16 12:21:06;;;;;;;3.03;2.10;;;;;;;22.66;18.54;99814.44;5053827;28;20115;-41
2023/10/16 12:23:38;;;;;;;11.60;2.55;;;;;;;22.56;18.35;99817.22;5053920;28;20029;-43
2023/10/16 12:26:05;;;;;;;4.68;2.45;;;;;;;22.15;18.19;99818.22;5054206;28;20028;-43
2023/10/16 12:28:33;;;;;;;8.32;4.10;;;;;;;22.40;18.24;99814.59;5053878;28;20405;-40
2023/10/16 12:30:59;;;;;;;5.05;3.15;;;;;;;22.34;18.00;99820.34;5054187;28;20020;-42
2023/10/16 12:33:27;;;;;;;7.45;3.50;;;;;;;22.19;17.64;99821.19;5053766;28;20021;-43
2023/10/16 12:35:56;;;;;;;12.63;5.97;;;;;;;22.35;17.94;99816.53;5053749;28;20104;-43
2023/10/16 12:38:24;;;;;;;7.25;5.40;;;;;;;22.20;18.06;99818.22;5053468;28;20049;-42
2023/10/16 12:40:55;;;;;;;15.57;9.27;;;;;;;22.26;18.58;99827.16;5053631;28;20116;-43
2023/10/16 12:43:21;;;;;;;7.75;4.80;;;;;;;21.70;18.70;99825.44;5053577;28;20021;-45
2023/10/16 12:45:51;;;;;;;6.28;3.90;;;;;;;21.53;18.88;99824.94;5053804;28;20025;-43
2023/10/16 12:48:17;;;;;;;7.55;4.70;;;;;;;21.48;18.84;99829.28;5053382;28;20023;-41
2023/10/16 12:50:47;;;;;;;10.90;6.55;;;;;;;21.62;19.01;99829.53;5053740;28;20124;-40
2023/10/16 12:53:12;;;;;;;11.48;6.20;;;;;;;21.73;19.10;99818.69;5054168;28;20105;-42
2023/10/16 12:55:40;;;;;;;12.82;8.25;;;;;;;22.08;18.82;99819.63;5053607;28;20481;-40
2023/10/16 12:58:10;;;;;;;8.85;5.35;;;;;;;22.43;18.61;99833.03;5053304;28;20028;-41
2023/10/16 13:00:39;;;;;;;10.85;7.00;;;;;;;22.84;17.94;99819.19;5053322;28;20025;-45
2023/10/16 13:03:13;;;;;;;9.32;5.38;;;;;;;22.58;18.10;99832.13;5053461;28;20025;-40
2023/10/16 13:05:40;;;;;;;7.85;3.83;;;;;;;22.36;18.43;99834.44;5053739;28;20032;-43
2023/10/16 13:08:07;;;;;;;6.70;3.47;;;;;;;22.89;18.32;99834.63;5053108;28;20025;-46
2023/10/16 13:10:34;;;;;;;8.38;3.80;;;;;;;22.95;18.74;99836.19;5053464;28;20025;-42
2023/10/16 13:13:00;;;;;;;6.97;3.65;;;;;;;23.25;17.74;99833.53;5053433;28;20028;-41
2023/10/16 13:15:30;;;;;;;8.32;3.25;;;;;;;23.42;17.71;99832.00;5053071;28;20074;-41
2023/10/16 13:17:56;;;;;;;5.03;2.83;;;;;;;24.16;17.70;99831.75;5053144;28;20021;-43
2023/10/16 13:20:28;;;;;;;4.07;2.25;;;;;;;23.46;18.03;99820.59;5053233;28;20033;-44
2023/10/16 13:22:55;;;;;;;3.58;2.05;;;;;;;23.63;18.05;99826.38;5052907;28;20017;-42
2023/10/16 13:25:25;;;;;;;3.60;1.88;;;;;;;23.92;17.95;99833.69;5053074;28;20021;-46
2023/10/16 13:27:51;;;;;;;3.35;2.00;;;;;;;23.73;17.83;99828.97;5052867;28;20504;-44